Time;durP1;ratioP1;P1;durP2;ratioP2;P2;SDS_P1;SDS_P2;PMS_P1;PMS_P2;Temp;Humidity;BMP_temperature;BMP_pressure;BME280_temperature;BME280_humidity;BME280_pressure;Samples;Min_cycle;Max_cycle;Signal;HPM_P1;HPM_P2
2022/01/03 00:02:07;;;;;;;2.17;1.67;;;;;;;12.99;51.56;95721.75;5012346;28;20214;-87
2022/01/03 00:04:34;;;;;;;3.07;1.90;;;;;;;12.95;51.21;95716.16;5013047;28;20203;-87
2022/01/03 00:07:01;;;;;;;2.83;1.73;;;;;;;12.89;52.03;95710.94;5012176;28;20203;-86
2022/01/03 00:09:28;;;;;;;4.53;2.20;;;;;;;12.91;51.80;95704.56;5013946;28;20225;-85
2022/01/03 00:11:55;;;;;;;2.87;2.07;;;;;;;12.85;52.27;95704.56;5011876;28;20238;-83
2022/01/03 00:14:24;;;;;;;2.27;1.80;;;;;;;12.85;51.98;95692.44;5012600;28;20203;-85
2022/01/03 00:16:50;;;;;;;2.07;1.73;;;;;;;12.85;52.30;95694.22;5013000;28;20199;-87
2022/01/03 00:19:18;;;;;;;1.63;1.53;;;;;;;12.76;52.69;95691.75;5013180;28;20226;-84
2022/01/03 00:21:46;;;;;;;1.67;1.57;;;;;;;12.71;53.42;95694.09;5012623;28;20238;-87
2022/01/03 00:24:14;;;;;;;2.97;1.87;;;;;;;12.65;53.72;95678.56;5013562;28;20203;-86
2022/01/03 00:26:45;;;;;;;3.17;1.77;;;;;;;12.71;53.53;95683.75;5013610;28;20238;-87
2022/01/03 00:29:17;;;;;;;1.87;1.70;;;;;;;12.70;53.96;95669.25;5012141;28;20623;-86
2022/01/03 00:31:44;;;;;;;3.37;1.67;;;;;;;12.66;54.11;95687.91;5011356;28;20233;-87
2022/01/03 00:34:13;;;;;;;4.17;1.83;;;;;;;12.63;54.27;95681.31;5012441;28;20214;-87
2022/01/03 00:36:44;;;;;;;3.87;1.73;;;;;;;12.65;54.40;95675.97;5012176;28;20714;-86
2022/01/03 00:39:12;;;;;;;3.73;1.53;;;;;;;12.63;54.83;95670.19;5012798;28;20222;-84
2022/01/03 00:41:41;;;;;;;2.47;1.80;;;;;;;12.55;55.20;95676.28;5012200;28;20292;-86
2022/01/03 00:44:09;;;;;;;2.40;1.60;;;;;;;12.62;55.08;95689.25;5013258;28;20191;-84
2022/01/03 00:46:35;;;;;;;3.53;1.80;;;;;;;12.65;54.87;95697.44;5012646;28;20208;-83
2022/01/03 00:49:03;;;;;;;3.70;1.93;;;;;;;12.62;55.06;95700.38;5012479;28;20211;-83
2022/01/03 00:51:30;;;;;;;3.37;1.67;;;;;;;12.66;55.46;95700.81;5012182;28;20729;-86
2022/01/03 00:53:57;;;;;;;2.87;1.70;;;;;;;12.62;55.93;95690.06;5012496;28;20215;-84
2022/01/03 00:56:29;;;;;;;3.93;1.50;;;;;;;12.65;55.28;95694.84;5012681;28;20211;-86
2022/01/03 00:59:00;;;;;;;1.90;1.60;;;;;;;12.55;56.43;95690.97;5012595;28;20215;-86
2022/01/03 01:01:28;;;;;;;2.73;1.70;;;;;;;12.58;56.25;95700.94;5012085;28;20230;-87
2022/01/03 01:03:57;;;;;;;3.47;1.60;;;;;;;12.55;56.71;95686.59;5012746;28;20923;-86
2022/01/03 01:06:24;;;;;;;3.57;1.80;;;;;;;12.49;56.96;95692.53;5012343;28;20305;-87
2022/01/03 01:08:55;;;;;;;2.37;1.90;;;;;;;12.49;57.11;95696.91;5011873;28;20222;-85
2022/01/03 01:11:27;;;;;;;3.93;2.03;;;;;;;12.52;57.06;95686.97;5012589;28;20238;-86
2022/01/03 01:13:54;;;;;;;3.23;1.50;;;;;;;12.53;56.99;95687.78;5012883;28;20249;-86
2022/01/03 01:16:21;;;;;;;3.43;1.77;;;;;;;12.44;57.72;95684.53;5011743;28;20199;-84
2022/01/03 01:18:49;;;;;;;2.07;1.50;;;;;;;12.41;57.87;95672.78;5011877;28;20223;-83
2022/01/03 01:21:15;;;;;;;3.37;1.80;;;;;;;12.42;57.53;95674.41;5010886;28;20230;-86
2022/01/03 01:23:43;;;;;;;3.73;2.00;;;;;;;12.43;57.75;95675.19;5012621;28;20586;-85
2022/01/03 01:28:55;;;;;;;3.70;1.70;;;;;;;12.37;58.24;95666.41;5012012;28;20320;-86
2022/01/03 01:31:24;;;;;;;3.93;1.80;;;;;;;12.32;58.29;95667.94;5011106;28;20242;-87
2022/01/03 01:33:54;;;;;;;2.43;1.70;;;;;;;12.40;57.92;95683.31;5011423;28;20227;-87
2022/01/03 01:36:23;;;;;;;2.83;1.30;;;;;;;12.41;57.86;95685.69;5011610;28;20198;-86
2022/01/03 01:38:51;;;;;;;4.83;1.77;;;;;;;12.50;57.34;95683.00;5012404;28;20233;-85
2022/01/03 01:41:19;;;;;;;2.83;1.60;;;;;;;12.50;57.93;95685.59;5010587;28;20229;-85
2022/01/03 01:43:48;;;;;;;2.33;1.43;;;;;;;12.55;57.34;95685.81;5012424;28;20218;-87
2022/01/03 01:46:18;;;;;;;2.93;1.70;;;;;;;12.44;58.05;95685.34;5011361;28;20199;-86
2022/01/03 01:48:48;;;;;;;2.93;1.53;;;;;;;12.38;58.03;95678.31;5012220;28;20225;-85
2022/01/03 01:51:18;;;;;;;2.97;1.37;;;;;;;12.36;58.52;95677.69;5010711;28;20230;-86
2022/01/03 01:53:47;;;;;;;1.70;1.30;;;;;;;12.37;58.58;95686.25;5011372;28;20223;-84
2022/01/03 01:56:16;;;;;;;4.60;1.70;;;;;;;12.35;58.50;95668.34;5012274;28;20670;-86
2022/01/03 01:59:03;;;;;;;2.37;1.50;;;;;;;12.42;58.89;95676.19;5011634;28;20218;-86
2022/01/03 02:01:42;;;;;;;1.93;1.40;;;;;;;12.39;58.78;95684.28;5013342;28;20233;-85
2022/01/03 02:04:20;;;;;;;4.43;1.80;;;;;;;12.39;58.76;95676.53;5015756;28;20198;-84
2022/01/03 02:06:48;;;;;;;2.27;1.37;;;;;;;12.37;58.91;95683.66;5014751;28;20236;-82
2022/01/03 02:09:20;;;;;;;2.47;1.47;;;;;;;12.34;59.18;95669.34;5014924;28;20214;-86
2022/01/03 02:11:52;;;;;;;3.20;1.50;;;;;;;12.26;59.50;95668.69;5015359;28;20222;-84
2022/01/03 02:14:19;;;;;;;3.10;1.43;;;;;;;12.27;59.10;95658.16;5015152;28;20583;-81
2022/01/03 02:16:47;;;;;;;3.00;1.60;;;;;;;12.32;59.37;95657.59;5015350;28;20199;-87
2022/01/03 02:19:14;;;;;;;2.37;1.27;;;;;;;12.34;59.33;95663.38;5015283;28;20218;-87
2022/01/03 02:21:42;;;;;;;2.23;1.40;;;;;;;12.32;59.32;95657.59;5014984;28;20226;-87
2022/01/03 02:24:09;;;;;;;3.60;1.53;;;;;;;12.43;58.84;95673.41;5015028;28;20226;-86
2022/01/03 02:26:36;;;;;;;1.80;1.30;;;;;;;12.30;59.33;95660.38;5014815;28;20202;-87
2022/01/03 02:29:04;;;;;;;2.90;1.30;;;;;;;12.26;59.43;95656.56;5014141;28;20237;-86
2022/01/03 02:31:31;;;;;;;1.80;1.30;;;;;;;12.29;59.29;95655.41;5014260;28;20229;-84
2022/01/03 02:34:00;;;;;;;2.80;1.40;;;;;;;12.30;59.03;95659.59;5014726;28;20222;-88
2022/01/03 02:36:28;;;;;;;2.63;1.40;;;;;;;12.35;58.82;95659.81;5014650;28;20293;-85
2022/01/03 02:38:56;;;;;;;3.20;1.80;;;;;;;12.31;59.17;95666.34;5013623;28;20219;-86
2022/01/03 02:41:22;;;;;;;4.57;1.50;;;;;;;12.33;59.10;95661.78;5002140;28;20583;-85
2022/01/03 02:43:51;;;;;;;2.97;1.30;;;;;;;12.26;59.35;95648.84;5013537;28;20206;-86
2022/01/03 02:46:17;;;;;;;2.03;1.30;;;;;;;12.23;59.68;95653.56;4993773;28;20204;-85
2022/01/03 02:48:44;;;;;;;2.80;1.30;;;;;;;12.22;59.65;95663.09;5006225;28;20887;-86
2022/01/03 02:51:11;;;;;;;3.13;1.50;;;;;;;12.24;59.43;95640.47;5012561;28;20226;-85
2022/01/03 02:53:38;;;;;;;2.40;1.40;;;;;;;12.18;59.43;95654.09;5013802;28;20690;-86
2022/01/03 02:56:06;;;;;;;3.57;1.33;;;;;;;12.19;59.55;95657.47;5013270;28;20217;-85
2022/01/03 02:58:32;;;;;;;3.60;1.40;;;;;;;12.23;59.50;95677.59;5013481;28;20207;-86
2022/01/03 03:00:59;;;;;;;2.23;1.47;;;;;;;12.27;59.57;95673.66;5013137;28;20226;-85
2022/01/03 03:03:25;;;;;;;3.77;1.50;;;;;;;12.26;59.89;95690.13;5013702;28;20206;-86
2022/01/03 03:05:52;;;;;;;1.40;1.10;;;;;;;12.30;59.87;95680.25;5014314;28;20195;-85
2022/01/03 03:08:19;;;;;;;3.57;1.50;;;;;;;12.35;59.47;95683.06;5013840;28;20206;-86
2022/01/03 03:10:46;;;;;;;2.23;1.27;;;;;;;12.26;59.97;95676.44;5013759;28;20222;-85
2022/01/03 03:13:14;;;;;;;3.57;1.40;;;;;;;12.27;59.73;95675.44;5013863;28;20233;-86
2022/01/03 03:15:40;;;;;;;3.13;1.50;;;;;;;12.25;60.40;95675.63;5012983;28;20202;-87
2022/01/03 03:18:09;;;;;;;3.13;1.93;;;;;;;12.25;59.92;95677.41;5014831;28;20215;-85
2022/01/03 03:20:35;;;;;;;3.23;1.30;;;;;;;12.27;59.94;95681.41;5014291;28;20333;-87
2022/01/03 03:23:03;;;;;;;3.00;1.40;;;;;;;12.24;60.35;95683.56;5013752;28;20206;-86
2022/01/03 03:25:32;;;;;;;1.93;1.23;;;;;;;12.29;60.12;95673.47;5013780;28;20213;-86
2022/01/03 03:28:01;;;;;;;3.70;1.47;;;;;;;12.19;60.32;95670.41;5014336;28;20207;-87
2022/01/03 03:30:31;;;;;;;3.03;1.30;;;;;;;12.18;60.72;95674.75;5012904;28;20745;-86
2022/01/03 03:33:08;;;;;;;1.97;1.43;;;;;;;12.13;60.92;95669.34;5013607;28;20202;-85
2022/01/03 03:35:35;;;;;;;2.87;1.33;;;;;;;12.21;60.41;95663.25;5013053;28;20206;-86
2022/01/03 03:38:02;;;;;;;2.20;1.40;;;;;;;12.12;60.76;95670.34;5012632;28;20209;-86
2022/01/03 03:40:29;;;;;;;2.63;1.23;;;;;;;12.12;60.90;95679.88;5012850;28;20295;-85
2022/01/03 03:42:56;;;;;;;2.10;1.43;;;;;;;12.16;61.14;95679.31;5012892;28;20207;-87
2022/01/03 03:45:23;;;;;;;3.13;1.40;;;;;;;12.22;60.80;95663.09;5012772;28;20212;-86
2022/01/03 03:47:51;;;;;;;2.87;1.63;;;;;;;12.30;60.63;95668.13;5012946;28;20213;-85
2022/01/03 03:50:18;;;;;;;2.67;1.30;;;;;;;12.28;60.49;95677.84;5013149;28;20366;-86
2022/01/03 03:52:44;;;;;;;3.23;1.30;;;;;;;12.24;60.64;95674.03;5013362;28;20618;-85
2022/01/03 03:55:12;;;;;;;2.40;1.50;;;;;;;12.25;60.50;95669.66;5012489;28;20226;-86
2022/01/03 03:57:38;;;;;;;8.43;1.63;;;;;;;12.27;60.35;95678.03;5012559;28;20199;-85
2022/01/03 04:00:09;;;;;;;2.37;1.10;;;;;;;12.24;60.63;95678.38;5012839;28;20221;-85
2022/01/03 04:02:36;;;;;;;3.13;1.20;;;;;;;12.26;60.49;95687.56;5012578;28;20602;-86
2022/01/03 04:05:04;;;;;;;4.07;1.67;;;;;;;12.26;60.28;95690.13;5012201;28;20715;-86
2022/01/03 04:07:31;;;;;;;3.43;1.77;;;;;;;12.26;60.73;95689.34;5012623;28;20202;-86
2022/01/03 04:09:58;;;;;;;3.33;1.33;;;;;;;12.30;60.55;95682.81;5012098;28;20226;-85
2022/01/03 04:12:24;;;;;;;4.30;1.70;;;;;;;12.33;60.57;95683.22;5012213;28;20273;-85
2022/01/03 04:14:50;;;;;;;3.53;1.20;;;;;;;12.25;60.64;95700.66;5011776;28;20246;-86
2022/01/03 04:17:17;;;;;;;4.83;1.73;;;;;;;12.19;60.97;95686.69;5012371;28;20670;-86
2022/01/03 04:19:44;;;;;;;4.00;1.30;;;;;;;12.22;60.85;95682.94;5012838;28;20230;-85
2022/01/03 04:22:11;;;;;;;4.77;1.67;;;;;;;12.20;60.69;95701.19;4992461;28;20238;-86
2022/01/03 04:24:38;;;;;;;2.37;1.30;;;;;;;12.31;60.60;95705.09;4991977;28;20210;-85
2022/01/03 04:27:04;;;;;;;2.53;1.57;;;;;;;12.23;60.95;95695.66;5012723;28;20203;-85
2022/01/03 04:29:31;;;;;;;4.80;1.30;;;;;;;12.23;61.05;95676.78;5011476;28;20241;-86
2022/01/03 04:31:58;;;;;;;2.80;1.13;;;;;;;12.26;60.59;95686.75;5011344;28;20226;-85
2022/01/03 04:34:24;;;;;;;2.53;1.33;;;;;;;12.21;61.03;95687.28;5011989;28;20222;-85
2022/01/03 04:36:51;;;;;;;4.33;1.43;;;;;;;12.24;60.71;95681.78;5011469;28;20324;-87
2022/01/03 04:39:18;;;;;;;3.27;1.60;;;;;;;12.20;60.69;95674.56;5011815;28;20222;-85
2022/01/03 04:41:45;;;;;;;2.93;1.23;;;;;;;12.15;60.92;95695.75;5011814;28;20241;-85
2022/01/03 04:44:11;;;;;;;4.33;1.50;;;;;;;12.20;60.63;95690.88;5011391;28;20195;-86
2022/01/03 04:46:38;;;;;;;4.90;1.50;;;;;;;12.17;60.96;95693.00;5011188;28;20202;-85
2022/01/03 04:49:07;;;;;;;3.53;1.40;;;;;;;12.20;61.02;95698.59;5012269;28;20233;-84
2022/01/03 04:51:33;;;;;;;3.17;1.57;;;;;;;12.11;61.25;95689.41;5011133;28;20234;-84
2022/01/03 04:54:00;;;;;;;3.23;1.30;;;;;;;12.20;61.22;95692.66;5011812;28;20575;-85
2022/01/03 04:56:28;;;;;;;2.40;1.43;;;;;;;12.09;61.33;95691.34;5011375;28;20827;-86
2022/01/03 04:58:55;;;;;;;2.20;1.10;;;;;;;12.12;60.97;95685.03;5011861;28;20229;-86
2022/01/03 05:01:22;;;;;;;2.10;1.30;;;;;;;12.10;61.18;95687.78;5011692;28;20339;-85
2022/01/03 05:03:48;;;;;;;3.70;1.40;;;;;;;12.16;61.00;95687.03;5011559;28;20195;-86
2022/01/03 05:06:16;;;;;;;3.40;1.37;;;;;;;12.17;60.77;95686.06;5011324;28;20203;-86
2022/01/03 05:08:44;;;;;;;4.37;1.50;;;;;;;12.23;60.50;95685.34;5011183;28;20199;-86
2022/01/03 05:11:10;;;;;;;2.00;1.30;;;;;;;12.16;60.60;95687.03;5011099;28;20238;-85
2022/01/03 05:13:38;;;;;;;3.60;1.43;;;;;;;12.15;61.04;95695.75;5011965;28;20199;-84
2022/01/03 05:16:05;;;;;;;4.50;1.17;;;;;;;12.19;60.73;95683.28;5011681;28;20203;-84
2022/01/03 05:18:32;;;;;;;3.07;1.20;;;;;;;12.12;60.94;95708.25;5012665;28;20214;-83
2022/01/03 05:20:58;;;;;;;3.43;1.50;;;;;;;12.18;60.78;95692.81;5010372;28;20226;-85
2022/01/03 05:23:25;;;;;;;4.30;1.30;;;;;;;12.18;60.85;95692.81;5015076;28;20203;-85
2022/01/03 05:25:51;;;;;;;4.00;1.60;;;;;;;12.16;60.93;95683.66;5011090;28;20199;-85
2022/01/03 05:28:18;;;;;;;3.43;1.40;;;;;;;12.17;61.13;95700.75;5011664;28;20218;-84
2022/01/03 05:30:46;;;;;;;3.13;1.53;;;;;;;12.08;60.84;95698.31;5010897;28;20226;-84
2022/01/03 05:33:12;;;;;;;4.10;1.30;;;;;;;12.16;60.90;95699.94;5012285;28;20208;-85
2022/01/03 05:35:39;;;;;;;3.13;1.40;;;;;;;12.20;60.62;95708.13;5011754;28;20218;-85
2022/01/03 05:38:05;;;;;;;1.83;1.50;;;;;;;12.14;60.88;95719.19;5010553;28;20272;-85
2022/01/03 05:40:32;;;;;;;3.97;1.70;;;;;;;12.09;60.92;95712.00;5010608;28;20241;-87
2022/01/03 05:42:58;;;;;;;3.30;1.60;;;;;;;12.16;60.46;95717.22;5013023;28;20195;-86
2022/01/03 05:45:25;;;;;;;3.23;1.40;;;;;;;12.04;60.53;95704.81;5012350;28;20214;-82
2022/01/03 05:47:53;;;;;;;4.53;1.43;;;;;;;12.05;60.81;95708.19;5011508;28;20195;-86
2022/01/03 05:50:20;;;;;;;4.17;1.37;;;;;;;12.07;60.43;95708.81;5011693;28;20222;-85
2022/01/03 05:52:47;;;;;;;2.13;1.17;;;;;;;12.06;60.59;95714.94;5012247;28;20199;-86
2022/01/03 05:55:14;;;;;;;4.17;1.33;;;;;;;12.06;60.52;95709.78;5005006;28;20226;-87
2022/01/03 05:57:40;;;;;;;3.47;1.37;;;;;;;12.06;59.91;95720.09;5000435;28;20215;-88
2022/01/03 06:00:13;;;;;;;4.70;1.40;;;;;;;12.02;60.24;95729.19;4992877;28;20219;-87
2022/01/03 06:02:41;;;;;;;3.07;1.47;;;;;;;12.02;60.25;95724.03;4993768;28;20241;-87
2022/01/03 06:05:17;;;;;;;3.60;1.57;;;;;;;12.12;60.01;95723.75;5006586;28;20214;-86
2022/01/03 06:07:44;;;;;;;4.63;1.53;;;;;;;12.18;59.96;95730.75;5005703;28;20198;-88
2022/01/03 06:10:15;;;;;;;3.57;1.57;;;;;;;12.23;59.60;95731.81;5004186;28;20234;-87
2022/01/03 06:12:42;;;;;;;3.20;1.30;;;;;;;12.24;59.10;95730.81;5011637;28;20241;-87
2022/01/03 06:15:09;;;;;;;3.37;1.30;;;;;;;12.13;59.55;95741.59;5012129;28;20934;-87
2022/01/03 06:17:35;;;;;;;3.17;1.13;;;;;;;12.16;59.59;95736.09;5012050;28;20211;-88
2022/01/03 06:20:02;;;;;;;3.30;1.37;;;;;;;12.14;59.64;95734.66;5012774;28;20219;-88
2022/01/03 06:22:30;;;;;;;4.07;1.73;;;;;;;12.13;59.71;95728.69;5000221;28;20241;-86
2022/01/03 06:24:56;;;;;;;3.00;2.00;;;;;;;12.16;59.82;95730.13;4992507;28;20199;-88
2022/01/03 06:27:22;;;;;;;3.13;1.37;;;;;;;12.19;59.29;95727.19;4991575;28;20204;-88
2022/01/03 06:29:49;;;;;;;5.53;1.53;;;;;;;12.22;59.65;95731.97;4999865;28;20221;-86
2022/01/03 06:32:15;;;;;;;2.77;1.20;;;;;;;12.18;59.57;95721.22;5011797;28;20238;-87
2022/01/03 06:34:42;;;;;;;3.13;1.40;;;;;;;12.09;59.96;95728.28;5011655;28;20218;-89
2022/01/03 06:37:08;;;;;;;2.57;1.30;;;;;;;12.01;60.13;95735.31;5012356;28;20203;-88
2022/01/03 06:39:36;;;;;;;2.07;1.20;;;;;;;12.04;60.23;95746.09;5012233;28;20218;-87
2022/01/03 06:42:03;;;;;;;2.90;1.43;;;;;;;11.99;60.45;95732.91;5000686;28;20227;-87
2022/01/03 06:44:29;;;;;;;2.03;1.20;;;;;;;12.01;60.70;95732.75;4990628;28;20199;-87
2022/01/03 06:46:56;;;;;;;3.30;1.33;;;;;;;11.99;60.41;95738.09;4996138;28;20291;-87
2022/01/03 06:49:22;;;;;;;4.73;1.40;;;;;;;11.94;60.24;95737.81;5014779;28;20226;-86
2022/01/03 06:51:49;;;;;;;4.20;1.63;;;;;;;11.93;60.29;95728.47;4994518;28;20235;-83
2022/01/03 06:54:15;;;;;;;3.93;1.60;;;;;;;11.99;60.39;95735.50;4994189;28;20230;-85
2022/01/03 06:56:43;;;;;;;2.43;1.40;;;;;;;11.94;60.45;95744.75;5008308;28;20206;-87
2022/01/03 06:59:11;;;;;;;3.60;1.50;;;;;;;12.02;60.10;95737.72;5015110;28;20230;-86
2022/01/03 07:01:38;;;;;;;3.50;1.23;;;;;;;12.01;60.10;95737.91;5014618;28;20318;-86
2022/01/03 07:04:05;;;;;;;3.80;1.23;;;;;;;11.91;60.18;95737.41;5013648;28;20210;-88
2022/01/03 07:06:32;;;;;;;3.37;1.43;;;;;;;11.89;60.31;95741.94;5013194;28;20203;-86
2022/01/03 07:08:58;;;;;;;3.83;1.60;;;;;;;11.88;60.38;95750.66;5013092;28;20298;-86
2022/01/03 07:11:25;;;;;;;4.13;1.40;;;;;;;11.79;60.68;95746.56;5013365;28;20237;-86
2022/01/03 07:14:04;;;;;;;5.53;1.50;;;;;;;11.83;60.49;95746.03;5013959;28;20211;-86
2022/01/03 07:19:15;;;;;;;2.70;1.50;;;;;;;11.94;60.49;95752.50;5013079;28;20226;-86
2022/01/03 07:21:41;;;;;;;2.67;1.57;;;;;;;12.00;59.96;95744.03;5012788;28;20241;-88
2022/01/03 07:24:07;;;;;;;4.93;1.37;;;;;;;12.02;60.25;95736.94;5013634;28;20210;-87
2022/01/03 07:26:34;;;;;;;3.73;1.40;;;;;;;11.98;59.89;95746.81;5012510;28;20199;-86
2022/01/03 07:29:02;;;;;;;4.00;1.50;;;;;;;12.04;59.73;95751.25;5007954;28;20422;-86
2022/01/03 07:31:28;;;;;;;3.33;1.33;;;;;;;12.03;59.56;95754.00;5012691;28;20230;-85
2022/01/03 07:33:54;;;;;;;3.33;1.50;;;;;;;11.90;60.19;95754.66;5011790;28;20794;-86
2022/01/03 07:36:21;;;;;;;4.13;1.40;;;;;;;12.03;59.69;95751.44;4994486;28;20723;-84
2022/01/03 07:38:48;;;;;;;2.13;1.20;;;;;;;12.05;59.27;95747.69;5013243;28;20203;-83
2022/01/03 07:41:16;;;;;;;5.70;1.40;;;;;;;12.03;59.67;95754.81;5013148;28;20237;-85
2022/01/03 07:43:43;;;;;;;3.50;1.53;;;;;;;11.98;59.39;95761.50;5013173;28;20253;-83
2022/01/03 07:46:11;;;;;;;4.07;1.30;;;;;;;11.93;59.62;95750.94;5010478;28;20206;-84
2022/01/03 07:48:38;;;;;;;2.57;1.40;;;;;;;11.93;59.66;95762.03;5012973;28;20203;-86
2022/01/03 07:51:04;;;;;;;2.30;1.20;;;;;;;11.88;59.78;95761.78;5012863;28;20229;-86
2022/01/03 07:53:31;;;;;;;2.37;1.13;;;;;;;11.73;59.82;95754.03;5013418;28;20593;-86
2022/01/03 07:55:58;;;;;;;3.37;1.17;;;;;;;11.81;59.43;95752.34;5011799;28;20222;-83
2022/01/03 07:58:25;;;;;;;3.93;1.60;;;;;;;11.89;59.24;95755.66;5012165;28;20199;-85
2022/01/03 08:00:51;;;;;;;2.77;1.30;;;;;;;11.97;59.02;95765.03;5012159;28;20234;-85
2022/01/03 08:03:20;;;;;;;2.87;1.40;;;;;;;11.93;59.07;95751.69;5012919;28;20615;-85
2022/01/03 08:05:46;;;;;;;3.83;1.27;;;;;;;11.98;59.23;95746.81;5012917;28;20601;-83
2022/01/03 08:08:13;;;;;;;2.47;1.20;;;;;;;11.97;59.09;95734.88;4996288;28;20554;-85
2022/01/03 08:10:41;;;;;;;4.40;1.50;;;;;;;12.00;58.74;95742.25;4992565;28;20235;-86
2022/01/03 08:13:08;;;;;;;3.07;1.37;;;;;;;11.96;59.19;95740.22;4998339;28;20234;-83
2022/01/03 08:15:34;;;;;;;4.60;1.63;;;;;;;11.96;59.06;95745.38;5012552;28;20215;-86
2022/01/03 08:18:01;;;;;;;3.27;1.83;;;;;;;12.02;59.02;95745.47;5013415;28;20593;-86
2022/01/03 08:20:29;;;;;;;5.67;1.57;;;;;;;12.02;58.64;95742.88;5012763;28;20219;-87
2022/01/03 08:22:55;;;;;;;3.10;1.77;;;;;;;12.13;58.53;95745.97;5010088;28;20232;-86
2022/01/03 08:25:22;;;;;;;2.73;1.50;;;;;;;12.06;58.54;95749.28;4995643;28;20698;-87
2022/01/03 08:27:49;;;;;;;3.03;1.50;;;;;;;12.04;58.58;95747.88;4992579;28;20215;-85
2022/01/03 08:30:15;;;;;;;2.57;1.20;;;;;;;11.94;58.58;95771.38;5004465;28;20223;-85
2022/01/03 08:32:42;;;;;;;2.83;1.30;;;;;;;11.99;58.35;95753.56;5012039;28;20759;-87
2022/01/03 08:35:09;;;;;;;4.37;1.83;;;;;;;12.08;58.44;95749.13;5001132;28;20717;-86
2022/01/03 08:37:37;;;;;;;3.17;1.30;;;;;;;12.05;58.44;95750.28;4993083;28;20211;-86
2022/01/03 08:40:06;;;;;;;3.60;1.23;;;;;;;12.04;58.30;95748.66;4992894;28;20226;-87
2022/01/03 08:42:33;;;;;;;4.23;1.20;;;;;;;12.01;58.24;95755.97;5003562;28;20230;-87
2022/01/03 08:45:00;;;;;;;4.33;1.50;;;;;;;12.08;57.81;95738.78;5011964;28;20199;-84
2022/01/03 08:47:27;;;;;;;4.40;1.27;;;;;;;12.17;57.74;95747.22;5012294;28;20203;-87
2022/01/03 08:49:53;;;;;;;6.03;1.60;;;;;;;12.26;57.53;95751.28;5012362;28;20227;-86
2022/01/03 08:52:20;;;;;;;3.73;1.40;;;;;;;12.20;57.72;95744.28;5010821;28;20227;-86
2022/01/03 08:54:48;;;;;;;3.27;1.13;;;;;;;12.27;57.50;95742.56;5011671;28;20226;-87
2022/01/03 08:57:14;;;;;;;3.83;1.30;;;;;;;12.24;57.67;95737.75;5011962;28;20203;-85
2022/01/03 08:59:41;;;;;;;2.20;1.10;;;;;;;12.24;57.36;95738.56;5011773;28;20230;-87
2022/01/03 09:02:08;;;;;;;2.57;1.20;;;;;;;12.31;57.10;95736.06;5011708;28;20238;-85
2022/01/03 09:04:34;;;;;;;3.30;1.60;;;;;;;12.18;57.19;95735.91;5009153;28;20199;-87
2022/01/03 09:07:01;;;;;;;2.37;1.30;;;;;;;12.27;57.27;95737.41;5011698;28;20803;-85
2022/01/03 09:09:29;;;;;;;3.23;1.10;;;;;;;12.28;56.82;95739.00;5011364;28;20227;-83
2022/01/03 09:11:57;;;;;;;2.40;1.20;;;;;;;12.33;56.31;95739.22;5011264;28;20648;-84
2022/01/03 09:14:23;;;;;;;2.43;1.63;;;;;;;12.31;56.73;95728.31;5012025;28;20222;-84
2022/01/03 09:16:50;;;;;;;2.73;1.47;;;;;;;12.23;56.66;95731.00;5012374;28;20223;-86
2022/01/03 09:19:16;;;;;;;3.17;1.10;;;;;;;12.24;56.46;95741.16;5012463;28;20230;-86
2022/01/03 09:21:43;;;;;;;3.63;1.10;;;;;;;12.29;56.23;95736.25;5011754;28;20621;-87
2022/01/03 09:24:26;;;;;;;2.47;1.30;;;;;;;12.34;56.07;95735.66;5011692;28;20202;-86
2022/01/03 09:29:38;;;;;;;3.90;1.30;;;;;;;12.42;55.88;95728.63;5010583;28;20740;-85
2022/01/03 09:32:06;;;;;;;2.53;1.07;;;;;;;12.46;56.04;95726.47;5011464;28;20234;-83
2022/01/03 09:34:33;;;;;;;2.50;1.43;;;;;;;12.44;55.59;95728.44;5010602;28;20678;-86
2022/01/03 09:37:00;;;;;;;3.57;1.47;;;;;;;12.36;55.44;95726.75;5010582;28;20231;-87
2022/01/03 09:39:27;;;;;;;3.27;1.63;;;;;;;12.37;55.89;95723.19;5001767;28;20739;-86
2022/01/03 09:41:57;;;;;;;2.57;1.30;;;;;;;12.43;55.70;95739.75;4991211;28;20645;-85
2022/01/03 09:44:30;;;;;;;3.70;1.60;;;;;;;12.42;55.38;95726.03;4991238;28;20265;-86
2022/01/03 09:47:00;;;;;;;3.90;1.60;;;;;;;12.47;55.57;95729.84;4991132;28;20575;-86
2022/01/03 09:49:30;;;;;;;3.50;1.53;;;;;;;12.53;55.44;95732.47;4991820;28;20223;-85
2022/01/03 09:51:58;;;;;;;2.70;1.63;;;;;;;12.49;55.48;95720.94;4998058;28;20237;-85
2022/01/03 09:54:25;;;;;;;2.83;1.30;;;;;;;12.48;55.67;95736.63;5010942;28;20203;-85
2022/01/03 09:56:53;;;;;;;1.80;0.93;;;;;;;12.42;55.99;95718.28;5011018;28;20230;-85
2022/01/03 09:59:20;;;;;;;4.03;1.47;;;;;;;12.45;55.99;95712.75;5011420;28;20838;-82
2022/01/03 10:01:46;;;;;;;3.27;1.03;;;;;;;12.52;55.86;95712.00;5010399;28;20257;-85
2022/01/03 10:04:15;;;;;;;2.33;1.30;;;;;;;12.59;56.28;95718.03;5011236;28;20202;-85
2022/01/03 10:06:42;;;;;;;2.80;1.00;;;;;;;12.58;56.11;95719.81;5011628;28;20207;-85
2022/01/03 10:09:08;;;;;;;2.17;1.20;;;;;;;12.49;56.10;95708.03;5011260;28;20234;-85
2022/01/03 10:11:35;;;;;;;2.20;1.00;;;;;;;12.58;55.91;95712.06;5011105;28;20261;-85
2022/01/03 10:14:01;;;;;;;3.43;1.40;;;;;;;12.49;56.17;95712.41;5011259;28;20213;-86
2022/01/03 10:16:29;;;;;;;4.60;1.50;;;;;;;12.49;56.48;95712.41;5011020;28;20226;-86
2022/01/03 10:18:56;;;;;;;2.67;1.47;;;;;;;12.59;56.20;95703.34;5011472;28;20321;-87
2022/01/03 10:21:38;;;;;;;2.97;1.50;;;;;;;12.58;55.74;95704.31;5010653;28;20235;-86
2022/01/03 10:24:06;;;;;;;3.37;1.30;;;;;;;12.69;55.59;95708.22;5015158;28;20237;-86
2022/01/03 10:26:32;;;;;;;3.23;1.20;;;;;;;12.72;55.30;95695.69;5014776;28;20214;-85
2022/01/03 10:29:19;;;;;;;2.90;1.23;;;;;;;12.84;54.94;95700.38;5010606;28;20231;-86
2022/01/03 10:31:47;;;;;;;3.60;1.40;;;;;;;12.90;54.79;95702.19;4994889;28;20286;-86
2022/01/03 10:34:15;;;;;;;2.97;1.30;;;;;;;12.90;54.63;95694.44;4999312;28;20210;-87
2022/01/03 10:36:45;;;;;;;1.77;1.07;;;;;;;12.84;54.56;95697.78;5014140;28;20231;-87
2022/01/03 10:39:14;;;;;;;3.90;1.60;;;;;;;12.77;54.55;95695.13;5014961;28;20457;-86
2022/01/03 10:41:40;;;;;;;3.40;1.23;;;;;;;12.75;54.67;95697.09;5013492;28;20298;-86
2022/01/03 10:44:07;;;;;;;3.20;1.43;;;;;;;12.66;55.00;95691.28;5014691;28;20229;-86
2022/01/03 10:46:36;;;;;;;2.17;1.20;;;;;;;12.72;54.56;95697.47;5013789;28;20209;-88
2022/01/03 10:49:08;;;;;;;3.27;1.33;;;;;;;12.68;54.88;95698.84;5014802;28;20245;-86
2022/01/03 10:51:35;;;;;;;4.50;1.00;;;;;;;12.70;54.62;95692.50;5013292;28;20306;-85
2022/01/03 10:54:03;;;;;;;2.67;1.37;;;;;;;12.79;55.06;95701.72;5014170;28;20209;-83
2022/01/03 10:56:35;;;;;;;2.63;1.27;;;;;;;12.86;54.60;95693.22;5012449;28;20222;-85
2022/01/03 10:59:18;;;;;;;2.37;1.20;;;;;;;12.92;54.73;95688.09;5013879;28;20234;-88
2022/01/03 11:01:46;;;;;;;3.53;1.20;;;;;;;12.77;55.00;95701.09;5014001;28;20230;-86
2022/01/03 11:04:25;;;;;;;2.80;1.20;;;;;;;12.82;55.36;95697.97;5013871;28;20198;-86
2022/01/03 11:10:43;;;;;;;2.43;1.30;;;;;;;12.87;55.22;95680.13;5013593;28;20294;-86
2022/01/03 11:13:07;;;;;;;3.57;1.70;;;;;;;12.88;55.19;95681.72;5013233;28;20226;-85
2022/01/03 11:15:34;;;;;;;4.07;1.20;;;;;;;12.76;55.50;95673.66;5013810;28;20226;-86
2022/01/03 11:18:10;;;;;;;2.20;1.30;;;;;;;12.87;56.29;95658.66;5013387;28;20237;-84
2022/01/03 11:20:37;;;;;;;2.07;1.10;;;;;;;13.04;57.85;95668.50;5013708;28;20218;-85
2022/01/03 11:23:03;;;;;;;3.50;1.43;;;;;;;13.19;56.87;95667.63;4998312;28;20218;-84
2022/01/03 11:25:32;;;;;;;2.03;1.30;;;;;;;13.27;56.35;95660.53;4994281;28;20210;-84
2022/01/03 11:28:00;;;;;;;2.50;1.10;;;;;;;13.44;57.18;95643.69;4993869;28;20222;-82
2022/01/03 11:30:27;;;;;;;2.20;1.27;;;;;;;13.41;54.41;95654.41;5004628;28;20215;-86
2022/01/03 11:32:55;;;;;;;3.37;1.10;;;;;;;13.30;54.07;95644.59;5014724;28;20214;-84
2022/01/03 11:35:22;;;;;;;3.60;1.20;;;;;;;13.25;54.48;95635.84;4999846;28;20223;-84
2022/01/03 11:37:49;;;;;;;2.97;1.27;;;;;;;13.25;54.34;95634.06;4993817;28;20207;-86
2022/01/03 11:40:18;;;;;;;2.33;1.20;;;;;;;13.27;54.55;95629.50;4993467;28;20223;-84
2022/01/03 11:42:47;;;;;;;3.17;1.27;;;;;;;13.05;54.75;95635.69;4993952;28;20228;-85
2022/01/03 11:45:13;;;;;;;4.83;2.27;;;;;;;13.03;54.72;95629.91;4993714;28;20203;-84
2022/01/03 11:47:40;;;;;;;3.40;2.43;;;;;;;13.04;54.72;95629.72;5002866;28;20618;-86
2022/01/03 11:50:08;;;;;;;2.70;1.03;;;;;;;13.05;54.84;95600.31;5015142;28;20222;-87